Time;durP1;ratioP1;P1;durP2;ratioP2;P2;SDS_P1;SDS_P2;PMS_P1;PMS_P2;Temp;Humidity;BMP_temperature;BMP_pressure;BME280_temperature;BME280_humidity;BME280_pressure;Samples;Min_cycle;Max_cycle;Signal;HPM_P1;HPM_P2
2022/09/13 00:01:32;;;;;;;18.17;13.15;;;;;;;;;;4988984;28;20050;-80
2022/09/13 00:03:58;;;;;;;15.75;12.07;;;;;;;;;;4987506;28;20053;-80
2022/09/13 00:06:25;;;;;;;19.23;13.05;;;;;;;;;;4983787;28;20363;-80
2022/09/13 00:08:53;;;;;;;17.13;11.70;;;;;;;;;;4975399;28;20109;-81
2022/09/13 00:11:20;;;;;;;16.98;12.23;;;;;;;;;;4988049;28;20403;-81
2022/09/13 00:13:47;;;;;;;14.18;10.77;;;;;;;;;;4988337;28;20042;-80
2022/09/13 00:16:14;;;;;;;13.82;10.32;;;;;;;;;;4986672;28;20097;-81
2022/09/13 00:18:40;;;;;;;11.70;9.23;;;;;;;;;;4993153;28;20042;-81
2022/09/13 00:21:14;;;;;;;12.00;9.73;;;;;;;;;;4994462;28;20050;-81
2022/09/13 00:23:40;;;;;;;14.20;10.60;;;;;;;;;;4995551;28;20106;-81
2022/09/13 00:26:08;;;;;;;11.55;9.70;;;;;;;;;;4992049;28;20049;-81
2022/09/13 00:28:34;;;;;;;13.73;10.45;;;;;;;;;;4988935;28;20054;-81
2022/09/13 00:31:01;;;;;;;12.70;10.75;;;;;;;;;;4990119;28;20065;-81
2022/09/13 00:33:27;;;;;;;14.55;11.40;;;;;;;;;;4991382;28;20081;-81
2022/09/13 00:35:53;;;;;;;15.38;11.55;;;;;;;;;;4975194;28;20047;-81
2022/09/13 00:38:19;;;;;;;16.08;11.73;;;;;;;;;;4991475;28;20151;-81
2022/09/13 00:40:45;;;;;;;14.25;11.15;;;;;;;;;;4996231;28;20061;-81
2022/09/13 00:43:19;;;;;;;18.05;12.13;;;;;;;;;;4995650;28;20085;-81
2022/09/13 00:45:46;;;;;;;17.20;11.77;;;;;;;;;;4990967;28;20124;-80
2022/09/13 00:48:21;;;;;;;18.00;13.10;;;;;;;;;;4985203;28;20735;-80
2022/09/13 00:50:51;;;;;;;15.98;12.55;;;;;;;;;;4996136;28;20100;-80
2022/09/13 00:53:21;;;;;;;20.08;13.63;;;;;;;;;;4994991;28;20053;-80
2022/09/13 00:55:50;;;;;;;19.70;13.70;;;;;;;;;;4995982;28;20058;-80
2022/09/13 00:58:20;;;;;;;20.80;13.93;;;;;;;;;;4972876;28;20076;-80
2022/09/13 01:00:47;;;;;;;17.80;14.13;;;;;;;;;;4976363;28;20094;-81
2022/09/13 01:03:14;;;;;;;20.17;14.27;;;;;;;;;;4978060;28;20069;-80
2022/09/13 01:05:43;;;;;;;21.20;14.07;;;;;;;;;;4996069;28;20074;-81
2022/09/13 01:08:14;;;;;;;20.92;14.07;;;;;;;;;;4991686;28;20500;-81
2022/09/13 01:10:40;;;;;;;19.00;14.00;;;;;;;;;;4995936;28;20050;-81
2022/09/13 01:13:13;;;;;;;23.20;15.35;;;;;;;;;;4980816;28;20050;-81
2022/09/13 01:15:41;;;;;;;20.25;14.88;;;;;;;;;;4976630;28;20496;-81
2022/09/13 01:18:08;;;;;;;21.45;15.20;;;;;;;;;;4983283;28;20069;-81
2022/09/13 01:20:46;;;;;;;21.30;15.00;;;;;;;;;;4994415;28;20046;-81
2022/09/13 01:23:31;;;;;;;22.85;14.90;;;;;;;;;;4992033;28;20340;-82
2022/09/13 01:26:23;;;;;;;19.75;14.43;;;;;;;;;;4993061;28;20050;-82
2022/09/13 01:29:08;;;;;;;21.90;14.55;;;;;;;;;;4980808;28;20132;-81
2022/09/13 01:31:41;;;;;;;22.13;14.63;;;;;;;;;;4974664;28;20407;-81
2022/09/13 01:34:06;;;;;;;22.80;15.55;;;;;;;;;;4977775;28;20091;-81
2022/09/13 01:36:51;;;;;;;21.13;14.55;;;;;;;;;;4972646;28;20152;-81
2022/09/13 01:39:22;;;;;;;20.67;15.00;;;;;;;;;;4988619;28;20178;-81
2022/09/13 01:42:11;;;;;;;25.08;14.98;;;;;;;;;;4990384;28;20061;-81
2022/09/13 01:44:47;;;;;;;19.58;15.02;;;;;;;;;;4990754;28;20046;-81
2022/09/13 01:47:13;;;;;;;;;;;;;;;;;;4991823;28;20137;-81
2022/09/13 01:49:39;;;;;;;20.98;15.73;;;;;;;;;;4972198;28;20430;-81
2022/09/13 01:52:12;;;;;;;29.55;15.05;;;;;;;;;;4989887;28;20561;-81
2022/09/13 01:54:51;;;;;;;17.58;11.65;;;;;;;;;;4979323;28;20109;-80
2022/09/13 01:57:19;;;;;;;9.63;5.07;;;;;;;;;;4972531;28;20054;-80
2022/09/13 01:59:58;;;;;;;14.20;3.25;;;;;;;;;;4989377;28;20050;-80
2022/09/13 02:02:30;;;;;;;8.65;2.88;;;;;;;;;;4976617;28;20085;-80
2022/09/13 02:05:01;;;;;;;10.18;3.25;;;;;;;;;;4972077;28;20379;-80
2022/09/13 02:07:32;;;;;;;6.05;1.95;;;;;;;;;;4963427;28;20046;-80
2022/09/13 02:10:00;;;;;;;8.15;1.90;;;;;;;;;;4989842;28;20048;-80
2022/09/13 02:12:28;;;;;;;4.82;1.90;;;;;;;;;;4990855;28;20439;-80
2022/09/13 02:15:13;;;;;;;5.88;1.60;;;;;;;;;;4991575;28;20042;-80
2022/09/13 02:17:42;;;;;;;5.68;1.70;;;;;;;;;;4991024;28;21829;-80
2022/09/13 02:20:29;;;;;;;4.55;1.67;;;;;;;;;;4990309;28;20426;-80
2022/09/13 02:22:57;;;;;;;4.43;1.73;;;;;;;;;;4991178;28;20404;-80
2022/09/13 02:25:25;;;;;;;2.78;1.80;;;;;;;;;;4991112;28;20463;-80
2022/09/13 02:27:54;;;;;;;3.00;1.40;;;;;;;;;;4987618;28;20555;-80
2022/09/13 02:30:21;;;;;;;6.82;1.73;;;;;;;;;;4990669;28;20050;-80
2022/09/13 02:32:51;;;;;;;4.95;1.80;;;;;;;;;;4968065;28;20495;-80
2022/09/13 02:35:22;;;;;;;3.78;1.60;;;;;;;;;;4970677;28;20132;-81
2022/09/13 02:37:50;;;;;;;3.88;1.80;;;;;;;;;;4974565;28;20128;-80
2022/09/13 02:40:20;;;;;;;5.22;1.70;;;;;;;;;;4990574;28;20422;-81
2022/09/13 02:42:57;;;;;;;3.63;1.70;;;;;;;;;;4988928;28;20058;-81
2022/09/13 02:45:27;;;;;;;5.47;2.17;;;;;;;;;;4971431;28;20046;-81
2022/09/13 02:47:53;;;;;;;4.75;2.00;;;;;;;;;;4988093;28;20120;-81
2022/09/13 02:50:24;;;;;;;2.90;1.70;;;;;;;;;;4978717;28;20046;-81
2022/09/13 02:52:55;;;;;;;6.13;1.90;;;;;;;;;;4982256;28;20050;-81
2022/09/13 02:55:36;;;;;;;4.65;2.00;;;;;;;;;;4971135;28;20101;-82
2022/09/13 02:58:06;;;;;;;6.78;2.63;;;;;;;;;;4975994;28;20065;-81
2022/09/13 03:00:32;;;;;;;4.95;2.20;;;;;;;;;;4989830;28;20058;-81
2022/09/13 03:03:02;;;;;;;8.18;2.60;;;;;;;;;;4980439;28;20057;-81
2022/09/13 03:05:28;;;;;;;4.47;2.42;;;;;;;;;;4985792;28;20042;-81
2022/09/13 03:07:54;;;;;;;6.38;2.78;;;;;;;;;;4987857;28;20074;-81
2022/09/13 03:10:22;;;;;;;6.47;3.00;;;;;;;;;;4990700;28;20047;-81
2022/09/13 03:13:07;;;;;;;5.28;2.78;;;;;;;;;;4983411;28;20619;-81
2022/09/13 03:15:33;;;;;;;6.00;2.60;;;;;;;;;;4990074;28;20054;-81
2022/09/13 03:18:05;;;;;;;3.60;2.50;;;;;;;;;;4988988;28;20244;-81
2022/09/13 03:20:40;;;;;;;7.75;3.33;;;;;;;;;;4990438;28;20050;-81
2022/09/13 03:23:19;;;;;;;3.65;2.50;;;;;;;;;;4990869;28;20522;-81
2022/09/13 03:25:54;;;;;;;4.03;3.13;;;;;;;;;;4990832;28;20106;-81
2022/09/13 03:28:39;;;;;;;7.80;2.95;;;;;;;;;;4988740;28;20038;-81
2022/09/13 03:31:19;;;;;;;3.72;2.42;;;;;;;;;;4953838;28;20106;-81
2022/09/13 03:33:54;;;;;;;4.90;2.50;;;;;;;;;;4970655;28;20122;-81
2022/09/13 03:36:24;;;;;;;3.40;1.98;;;;;;;;;;4971652;28;20097;-81
2022/09/13 03:39:03;;;;;;;5.90;2.10;;;;;;;;;;4979809;28;20105;-81
2022/09/13 03:41:34;;;;;;;5.63;2.40;;;;;;;;;;4986707;28;20058;-81
2022/09/13 03:44:02;;;;;;;4.60;2.20;;;;;;;;;;4989731;28;20135;-81
2022/09/13 03:46:34;;;;;;;6.28;2.40;;;;;;;;;;4989481;28;20052;-81
2022/09/13 03:49:02;;;;;;;7.28;2.72;;;;;;;;;;4988755;28;20054;-81
2022/09/13 03:51:29;;;;;;;10.18;2.58;;;;;;;;;;4989895;28;20053;-82
2022/09/13 03:53:57;;;;;;;3.60;2.20;;;;;;;;;;4987691;28;20048;-81
2022/09/13 03:56:23;;;;;;;5.65;2.50;;;;;;;;;;4986602;28;20047;-81
2022/09/13 03:58:50;;;;;;;4.20;2.50;;;;;;;;;;4970918;28;20042;-81
2022/09/13 04:01:21;;;;;;;4.88;2.90;;;;;;;;;;4987711;28;20522;-81
2022/09/13 04:03:47;;;;;;;6.22;2.60;;;;;;;;;;4972769;28;20047;-81
2022/09/13 04:06:13;;;;;;;4.35;2.65;;;;;;;;;;4971042;28;20476;-81
2022/09/13 04:08:39;;;;;;;3.63;2.60;;;;;;;;;;4976019;28;20137;-81
2022/09/13 04:11:05;;;;;;;4.68;2.78;;;;;;;;;;4988063;28;20121;-81
2022/09/13 04:13:31;;;;;;;5.13;3.00;;;;;;;;;;4989757;28;20049;-81
2022/09/13 04:16:01;;;;;;;4.20;3.20;;;;;;;;;;4988795;28;20050;-81
2022/09/13 04:18:28;;;;;;;5.40;3.30;;;;;;;;;;4988842;28;20126;-81
2022/09/13 04:20:58;;;;;;;5.93;3.22;;;;;;;;;;4988342;28;20051;-81
2022/09/13 04:23:25;;;;;;;8.60;3.75;;;;;;;;;;4984929;28;20082;-81
2022/09/13 04:25:51;;;;;;;5.40;3.38;;;;;;;;;;4970107;28;20066;-81
2022/09/13 04:28:18;;;;;;;5.78;3.40;;;;;;;;;;4986734;28;20126;-81
2022/09/13 04:30:44;;;;;;;8.38;3.70;;;;;;;;;;4988629;28;20054;-81
2022/09/13 04:33:11;;;;;;;6.95;3.80;;;;;;;;;;4963122;28;20511;-81
2022/09/13 04:35:38;;;;;;;7.32;2.72;;;;;;;;;;4970201;28;20496;-80
2022/09/13 04:38:04;;;;;;;6.90;2.88;;;;;;;;;;4970667;28;20089;-80
2022/09/13 04:40:30;;;;;;;7.97;2.88;;;;;;;;;;4986817;28;20054;-80
2022/09/13 04:42:56;;;;;;;11.15;2.92;;;;;;;;;;4987727;28;20062;-81
2022/09/13 04:45:23;;;;;;;7.45;2.90;;;;;;;;;;4987418;28;20133;-81
2022/09/13 04:47:55;;;;;;;8.07;2.60;;;;;;;;;;4989643;28;20050;-80
2022/09/13 04:50:22;;;;;;;6.93;2.65;;;;;;;;;;4969299;28;20046;-80
2022/09/13 04:52:48;;;;;;;13.77;2.97;;;;;;;;;;4975791;28;20038;-80
2022/09/13 04:55:14;;;;;;;6.07;3.17;;;;;;;;;;4986484;28;20243;-81
2022/09/13 04:57:41;;;;;;;7.97;3.00;;;;;;;;;;4988105;28;20555;-81
2022/09/13 05:00:08;;;;;;;8.07;3.00;;;;;;;;;;4988307;28;20043;-81
2022/09/13 05:02:34;;;;;;;7.63;2.97;;;;;;;;;;4988309;28;20131;-80
2022/09/13 05:05:00;;;;;;;8.80;2.60;;;;;;;;;;4991969;28;20142;-80
2022/09/13 05:07:26;;;;;;;7.35;2.40;;;;;;;;;;4992769;28;20482;-82
2022/09/13 05:09:52;;;;;;;7.72;2.20;;;;;;;;;;4989515;28;20121;-80
2022/09/13 05:12:18;;;;;;;7.22;2.35;;;;;;;;;;4976864;28;20384;-82
2022/09/13 05:14:44;;;;;;;11.10;2.90;;;;;;;;;;4977826;28;20085;-82
2022/09/13 05:17:10;;;;;;;7.68;2.63;;;;;;;;;;4974384;28;20085;-82
2022/09/13 05:19:36;;;;;;;6.38;2.20;;;;;;;;;;4985790;28;20295;-82
2022/09/13 05:22:02;;;;;;;6.07;2.28;;;;;;;;;;4989964;28;20468;-82
2022/09/13 05:24:28;;;;;;;6.00;2.50;;;;;;;;;;4981700;28;20043;-82
2022/09/13 05:26:54;;;;;;;9.95;3.03;;;;;;;;;;4973281;28;20125;-82
2022/09/13 05:29:20;;;;;;;6.53;2.20;;;;;;;;;;4981084;28;20134;-82
2022/09/13 05:31:46;;;;;;;6.10;2.30;;;;;;;;;;4969841;28;20129;-82
2022/09/13 05:34:16;;;;;;;5.20;2.10;;;;;;;;;;4971970;28;20461;-83
2022/09/13 05:36:42;;;;;;;10.35;2.50;;;;;;;;;;4972801;28;20066;-82
2022/09/13 05:39:12;;;;;;;6.00;2.10;;;;;;;;;;4987176;28;20427;-82
2022/09/13 05:41:38;;;;;;;3.92;2.10;;;;;;;;;;4993569;28;20058;-83
2022/09/13 05:44:04;;;;;;;6.82;2.22;;;;;;;;;;4993074;28;20108;-82
2022/09/13 05:46:30;;;;;;;5.70;2.50;;;;;;;;;;4991947;28;20104;-82
2022/09/13 05:48:59;;;;;;;4.90;2.30;;;;;;;;;;4991260;28;20047;-82
2022/09/13 05:51:25;;;;;;;8.65;3.03;;;;;;;;;;4992187;28;20038;-84
2022/09/13 05:53:53;;;;;;;4.28;2.00;;;;;;;;;;4990025;28;20054;-79
2022/09/13 05:56:23;;;;;;;3.25;2.08;;;;;;;;;;4991362;28;20523;-83
2022/09/13 05:58:50;;;;;;;7.20;2.58;;;;;;;;;;4991134;28;20403;-82
2022/09/13 06:01:17;;;;;;;4.70;2.17;;;;;;;;;;4990497;28;20059;-81
2022/09/13 06:03:46;;;;;;;7.30;2.03;;;;;;;;;;4982857;28;20108;-81
2022/09/13 06:06:12;;;;;;;4.20;2.00;;;;;;;;;;4970442;28;20054;-81
2022/09/13 06:08:38;;;;;;;4.22;1.92;;;;;;;;;;4975351;28;20050;-81
2022/09/13 06:11:05;;;;;;;5.15;1.80;;;;;;;;;;4989719;28;20042;-81
2022/09/13 06:13:32;;;;;;;5.75;2.05;;;;;;;;;;4990851;28;20050;-81
2022/09/13 06:15:58;;;;;;;4.93;2.13;;;;;;;;;;4990886;28;20057;-81
2022/09/13 06:18:25;;;;;;;3.88;1.90;;;;;;;;;;4975204;28;20082;-81
2022/09/13 06:20:51;;;;;;;10.43;2.95;;;;;;;;;;4987104;28;20031;-81
2022/09/13 06:23:17;;;;;;;4.90;2.30;;;;;;;;;;4972623;28;20050;-81
2022/09/13 06:25:43;;;;;;;12.00;2.90;;;;;;;;;;4969299;28;20082;-88
2022/09/13 06:28:09;;;;;;;3.13;1.70;;;;;;;;;;4977648;28;20055;-88
2022/09/13 06:30:36;;;;;;;6.28;1.80;;;;;;;;;;4993468;28;20046;-87
2022/09/13 06:33:02;;;;;;;5.78;1.95;;;;;;;;;;4967844;28;20518;-89
2022/09/13 06:35:28;;;;;;;5.55;2.10;;;;;;;;;;4972443;28;20047;-88
2022/09/13 06:37:57;;;;;;;4.35;1.80;;;;;;;;;;4971681;28;20047;-87
2022/09/13 06:40:23;;;;;;;4.80;1.77;;;;;;;;;;4987664;28;20185;-90
2022/09/13 06:42:50;;;;;;;4.05;2.00;;;;;;;;;;4989989;28;20042;-88
2022/09/13 06:45:16;;;;;;;4.85;1.90;;;;;;;;;;4989916;28;20100;-87
2022/09/13 06:47:42;;;;;;;9.10;2.63;;;;;;;;;;4991442;28;20096;-90
2022/09/13 06:50:08;;;;;;;4.18;2.20;;;;;;;;;;4975698;28;20054;-90
2022/09/13 06:52:34;;;;;;;3.58;1.60;;;;;;;;;;4971742;28;20070;-92
2022/09/13 06:55:00;;;;;;;4.38;1.83;;;;;;;;;;4975567;28;20082;-88
2022/09/13 06:57:29;;;;;;;6.30;2.38;;;;;;;;;;4984198;28;20066;-92
2022/09/13 06:59:55;;;;;;;4.07;1.80;;;;;;;;;;4964538;28;20091;-87
2022/09/13 07:02:23;;;;;;;4.05;1.60;;;;;;;;;;4985948;28;20074;-87
2022/09/13 07:04:49;;;;;;;6.03;1.70;;;;;;;;;;4991649;28;20100;-91
2022/09/13 07:07:15;;;;;;;4.45;1.60;;;;;;;;;;4980847;28;20046;-90
2022/09/13 07:09:42;;;;;;;3.13;1.80;;;;;;;;;;4975326;28;20454;-91
2022/09/13 07:12:08;;;;;;;5.30;1.77;;;;;;;;;;4972365;28;20051;-89
2022/09/13 07:14:34;;;;;;;5.50;2.20;;;;;;;;;;4975999;28;20080;-91
2022/09/13 07:17:00;;;;;;;8.50;2.17;;;;;;;;;;4981546;28;20054;-90
2022/09/13 07:19:26;;;;;;;5.35;1.73;;;;;;;;;;4959371;28;20043;-90
2022/09/13 07:21:53;;;;;;;11.00;2.38;;;;;;;;;;4988507;28;20096;-91
2022/09/13 07:24:20;;;;;;;6.32;2.10;;;;;;;;;;4990159;28;20129;-90
2022/09/13 07:26:46;;;;;;;5.32;1.80;;;;;;;;;;4989250;28;20046;-91
2022/09/13 07:29:15;;;;;;;3.83;1.70;;;;;;;;;;4970907;28;20050;-91
2022/09/13 07:31:41;;;;;;;4.70;1.90;;;;;;;;;;4980256;28;20050;-91
2022/09/13 07:34:11;;;;;;;5.03;1.90;;;;;;;;;;4964641;28;20062;-90
2022/09/13 07:36:37;;;;;;;8.85;1.90;;;;;;;;;;4995172;28;20042;-91
2022/09/13 07:39:04;;;;;;;9.52;2.08;;;;;;;;;;4979256;28;20064;-91
2022/09/13 07:41:31;;;;;;;5.90;1.65;;;;;;;;;;4997111;28;20403;-90
2022/09/13 07:43:58;;;;;;;7.18;1.83;;;;;;;;;;4989466;28;20128;-90
2022/09/13 07:46:25;;;;;;;6.22;1.90;;;;;;;;;;4974614;28;20463;-91
2022/09/13 07:48:52;;;;;;;5.93;1.90;;;;;;;;;;4973253;28;20507;-91
2022/09/13 07:51:22;;;;;;;4.88;1.70;;;;;;;;;;4976550;28;20057;-91
2022/09/13 07:53:49;;;;;;;3.88;1.70;;;;;;;;;;4990071;28;20641;-91
2022/09/13 07:56:16;;;;;;;6.10;2.05;;;;;;;;;;4984161;28;20471;-91
2022/09/13 07:58:44;;;;;;;4.45;1.70;;;;;;;;;;4977480;28;20671;-91
2022/09/13 08:01:12;;;;;;;4.45;1.63;;;;;;;;;;4975275;28;20051;-93
2022/09/13 08:03:38;;;;;;;6.55;1.80;;;;;;;;;;4972883;28;20046;-93
2022/09/13 08:06:05;;;;;;;6.25;1.67;;;;;;;;;;4985186;28;20042;-89
2022/09/13 08:08:31;;;;;;;6.15;1.73;;;;;;;;;;4988357;28;20407;-92
2022/09/13 08:10:58;;;;;;;4.53;1.80;;;;;;;;;;4979725;28;20529;-91
2022/09/13 08:13:24;;;;;;;7.07;1.90;;;;;;;;;;4984334;28;20078;-93
2022/09/13 08:15:50;;;;;;;5.82;1.83;;;;;;;;;;4977122;28;20039;-92
2022/09/13 08:18:17;;;;;;;5.88;1.65;;;;;;;;;;4990933;28;20046;-93
2022/09/13 08:20:43;;;;;;;7.25;1.67;;;;;;;;;;4990223;28;20069;-92
2022/09/13 08:23:10;;;;;;;7.47;1.75;;;;;;;;;;4972048;28;20518;-92
2022/09/13 08:25:37;;;;;;;5.53;1.83;;;;;;;;;;4971103;28;20042;-92
2022/09/13 08:28:30;;;;;;;4.53;2.08;;;;;;;;;;4970204;28;20057;-95
2022/09/13 08:30:56;;;;;;;6.28;1.80;;;;;;;;;;4973082;28;20054;-92
2022/09/13 08:33:22;;;;;;;6.82;1.60;;;;;;;;;;4959762;28;20089;-92
2022/09/13 08:35:52;;;;;;;4.90;1.83;;;;;;;;;;4976670;28;20043;-91
2022/09/13 08:38:18;;;;;;;5.85;1.70;;;;;;;;;;4974150;28;20083;-93
2022/09/13 08:40:47;;;;;;;4.65;1.33;;;;;;;;;;4979197;28;20055;-90
2022/09/13 08:43:38;;;;;;;4.88;1.52;;;;;;;;;;4978819;28;20108;-88
2022/09/13 08:46:06;;;;;;;6.40;1.85;;;;;;;;;;4979715;28;20510;-91
2022/09/13 08:48:34;;;;;;;3.33;1.40;;;;;;;;;;4986876;28;20038;-89
2022/09/13 08:51:03;;;;;;;5.78;1.73;;;;;;;;;;4982112;28;20038;-88
2022/09/13 08:53:30;;;;;;;8.38;1.83;;;;;;;;;;4979043;28;20047;-90
2022/09/13 08:56:03;;;;;;;9.50;2.03;;;;;;;;;;4978881;28;20046;-90
2022/09/13 08:58:29;;;;;;;6.38;1.90;;;;;;;;;;4980023;28;20052;-88
2022/09/13 09:01:05;;;;;;;5.35;1.85;;;;;;;;;;4975375;28;20031;-88
2022/09/13 09:03:41;;;;;;;4.75;1.90;;;;;;;;;;4981136;28;20542;-88
2022/09/13 09:06:07;;;;;;;;;;;;;;;;;;4972734;28;20093;-88
2022/09/13 09:08:46;;;;;;;4.47;1.77;;;;;;;;;;4978782;28;19964;-87
2022/09/13 09:11:27;;;;;;;4.82;1.65;;;;;;;;;;4991676;28;20535;-82
2022/09/13 09:14:05;;;;;;;9.50;1.90;;;;;;;;;;4992336;28;20056;-86
2022/09/13 09:16:34;;;;;;;5.85;1.70;;;;;;;;;;4975718;28;20050;-87
2022/09/13 09:19:06;;;;;;;6.03;1.95;;;;;;;;;;4989758;28;20047;-87
2022/09/13 09:21:32;;;;;;;6.00;1.60;;;;;;;;;;4960165;28;20484;-87
2022/09/13 09:24:01;;;;;;;6.20;1.60;;;;;;;;;;4973943;28;20130;-88
2022/09/13 09:26:29;;;;;;;6.70;2.30;;;;;;;;;;4991012;28;20048;-88
2022/09/13 09:28:56;;;;;;;4.03;1.55;;;;;;;;;;4987035;28;20372;-87
2022/09/13 09:31:28;;;;;;;5.72;1.50;;;;;;;;;;4962971;28;20065;-88
2022/09/13 09:33:57;;;;;;;5.10;1.70;;;;;;;;;;4981813;28;20101;-81
2022/09/13 09:36:32;;;;;;;3.60;1.52;;;;;;;;;;4975496;28;20047;-85
2022/09/13 09:38:59;;;;;;;6.82;2.13;;;;;;;;;;4975931;28;20061;-86
2022/09/13 09:41:31;;;;;;;3.28;1.35;;;;;;;;;;4988685;28;20057;-87
2022/09/13 09:44:12;;;;;;;5.72;1.73;;;;;;;;;;4981578;28;20059;-86
2022/09/13 09:46:40;;;;;;;4.55;1.85;;;;;;;;;;4991190;28;20044;-87
2022/09/13 09:52:05;;;;;;;5.10;1.63;;;;;;;;;;4981801;28;20093;-87
2022/09/13 09:54:33;;;;;;;4.80;1.60;;;;;;;;;;4979589;28;20145;-87
2022/09/13 09:57:00;;;;;;;9.85;2.00;;;;;;;;;;4975364;28;20058;-87
2022/09/13 09:59:28;;;;;;;3.33;1.70;;;;;;;;;;4972682;28;20050;-87
2022/09/13 10:01:56;;;;;;;5.95;2.03;;;;;;;;;;4987007;28;20042;-83
2022/09/13 10:04:22;;;;;;;6.07;1.95;;;;;;;;;;4973700;28;20117;-87
2022/09/13 10:06:50;;;;;;;6.72;1.60;;;;;;;;;;4979773;28;20038;-86
2022/09/13 10:09:20;;;;;;;4.10;1.77;;;;;;;;;;4989818;28;20388;-86
2022/09/13 10:11:48;;;;;;;4.68;1.75;;;;;;;;;;4979801;28;20054;-89
2022/09/13 10:14:26;;;;;;;7.25;1.58;;;;;;;;;;4981230;28;20073;-86
2022/09/13 10:17:11;;;;;;;4.18;1.60;;;;;;;;;;4990996;28;20042;-88
2022/09/13 10:19:37;;;;;;;3.33;1.85;;;;;;;;;;4955837;28;20085;-89
2022/09/13 10:22:05;;;;;;;5.05;1.70;;;;;;;;;;4982617;28;20396;-88
2022/09/13 10:24:31;;;;;;;4.65;1.67;;;;;;;;;;4972858;28;20065;-89
2022/09/13 10:26:58;;;;;;;5.57;1.73;;;;;;;;;;4976576;28;20055;-89
2022/09/13 10:29:25;;;;;;;9.23;2.63;;;;;;;;;;4982403;28;20051;-86
2022/09/13 10:32:02;;;;;;;4.47;2.00;;;;;;;;;;4988344;28;20129;-89
2022/09/13 10:34:28;;;;;;;4.35;1.58;;;;;;;;;;4991217;28;20081;-90
2022/09/13 10:36:57;;;;;;;5.22;1.80;;;;;;;;;;4956572;28;20475;-86
2022/09/13 10:39:24;;;;;;;5.80;1.85;;;;;;;;;;4980858;28;20061;-88
2022/09/13 10:42:00;;;;;;;6.50;1.80;;;;;;;;;;4962401;28;20047;-88
2022/09/13 10:44:36;;;;;;;6.00;1.90;;;;;;;;;;4980215;28;20105;-88
2022/09/13 10:47:04;;;;;;;7.25;2.13;;;;;;;;;;4969712;28;20093;-88
2022/09/13 10:49:47;;;;;;;4.45;1.50;;;;;;;;;;4971585;28;20051;-88
2022/09/13 10:52:22;;;;;;;6.13;2.20;;;;;;;;;;4970659;28;20511;-88
2022/09/13 10:54:48;;;;;;;4.28;1.52;;;;;;;;;;4988167;28;20053;-88
2022/09/13 10:57:47;;;;;;;7.38;2.10;;;;;;;;;;4986951;28;20050;-88
2022/09/13 11:00:16;;;;;;;5.95;1.60;;;;;;;;;;4944999;28;20091;-88
2022/09/13 11:02:42;;;;;;;9.50;1.90;;;;;;;;;;4935526;28;20196;-89
2022/09/13 11:05:20;;;;;;;4.88;1.63;;;;;;;;;;4946218;28;20036;-88
2022/09/13 11:08:05;;;;;;;5.68;1.98;;;;;;;;;;4933388;29;20140;-88
2022/09/13 11:10:33;;;;;;;5.97;1.80;;;;;;;;;;4924146;29;20161;-88
2022/09/13 11:13:06;;;;;;;4.70;2.00;;;;;;;;;;4942321;29;20062;-88
2022/09/13 11:15:47;;;;;;;5.65;2.28;;;;;;;;;;4944714;29;20056;-88
2022/09/13 11:18:31;;;;;;;3.70;1.70;;;;;;;;;;4933072;29;20051;-88
2022/09/13 11:21:06;;;;;;;9.63;2.22;;;;;;;;;;4948590;29;20046;-89
2022/09/13 11:23:34;;;;;;;11.93;2.25;;;;;;;;;;4926173;29;20043;-89
2022/09/13 11:26:19;;;;;;;5.53;2.15;;;;;;;;;;4947876;29;20130;-86
2022/09/13 11:28:58;;;;;;;6.18;1.67;;;;;;;;;;4949151;29;20139;-88
2022/09/13 11:31:34;;;;;;;4.75;1.90;;;;;;;;;;4932369;29;20094;-90
2022/09/13 14:35:32;;;;;;;3.90;1.65;;;;;;;;;;6188856;22;1289336;-82
2022/09/13 14:38:25;;;;;;;5.43;1.70;;;;;;;;;;6154413;23;20040;-83
2022/09/13 14:40:57;;;;;;;5.30;1.85;;;;;;;;;;6153264;23;20020;-83
2022/09/13 14:43:26;;;;;;;4.13;1.55;;;;;;;;;;6181866;23;20027;-83
2022/09/13 14:45:54;;;;;;;4.10;1.50;;;;;;;;;;6181851;23;20052;-83
2022/09/13 14:48:23;;;;;;;5.90;1.73;;;;;;;;;;6181570;23;20076;-83
2022/09/13 14:50:53;;;;;;;6.38;1.80;;;;;;;;;;6182340;23;20367;-83
2022/09/13 14:53:31;;;;;;;4.25;1.85;;;;;;;;;;6154982;23;20123;-83
2022/09/13 14:55:57;;;;;;;6.47;1.98;;;;;;;;;;6182051;23;20017;-82
2022/09/13 14:58:34;;;;;;;4.22;1.67;;;;;;;;;;6154785;23;20028;-83
2022/09/13 15:01:03;;;;;;;4.70;1.80;;;;;;;;;;6181687;23;20023;-83
2022/09/13 15:03:29;;;;;;;7.13;1.90;;;;;;;;;;6154653;23;20021;-84
2022/09/13 15:06:00;;;;;;;3.85;1.48;;;;;;;;;;6154470;23;20021;-84
2022/09/13 15:08:32;;;;;;;5.55;1.88;;;;;;;;;;6181017;23;20023;-84
2022/09/13 15:10:59;;;;;;;5.50;1.80;;;;;;;;;;6181607;23;20336;-84
2022/09/13 15:13:25;;;;;;;4.75;1.63;;;;;;;;;;6155025;23;20071;-85
2022/09/13 15:15:52;;;;;;;5.40;1.92;;;;;;;;;;6181448;23;20013;-83
2022/09/13 15:18:27;;;;;;;4.95;1.73;;;;;;;;;;6129673;23;20071;-83
2022/09/13 15:20:54;;;;;;;6.38;1.90;;;;;;;;;;6181726;23;20104;-83
2022/09/13 15:23:23;;;;;;;3.15;1.70;;;;;;;;;;6181301;23;20013;-82
2022/09/13 15:25:52;;;;;;;3.40;1.70;;;;;;;;;;6181451;23;20017;-83
2022/09/13 15:28:20;;;;;;;6.03;1.73;;;;;;;;;;6180488;23;20028;-83
2022/09/13 15:30:46;;;;;;;4.05;1.70;;;;;;;;;;6181783;23;20080;-84
2022/09/13 15:33:12;;;;;;;5.70;1.88;;;;;;;;;;6180406;23;20025;-83
2022/09/13 15:35:39;;;;;;;3.80;1.88;;;;;;;;;;6181096;23;20078;-84
2022/09/13 15:38:16;;;;;;;6.43;1.60;;;;;;;;;;6121112;23;20024;-85
2022/09/13 15:40:44;;;;;;;4.30;1.65;;;;;;;;;;6152079;23;20064;-85
2022/09/13 15:43:09;;;;;;;4.57;1.30;;;;;;;;;;6151350;23;20020;-85
2022/09/13 15:45:36;;;;;;;7.60;1.52;;;;;;;;;;6149950;23;20021;-85
2022/09/13 15:48:02;;;;;;;6.10;1.65;;;;;;;;;;6150429;23;20021;-85
2022/09/13 15:50:32;;;;;;;5.00;1.75;;;;;;;;;;6151609;23;20028;-85
2022/09/13 15:52:59;;;;;;;5.03;1.60;;;;;;;;;;6151398;23;20013;-85
2022/09/13 15:55:25;;;;;;;4.43;1.77;;;;;;;;;;6150181;23;20064;-84
2022/09/13 15:57:52;;;;;;;6.13;1.70;;;;;;;;;;6148991;23;20024;-85
2022/09/13 16:00:27;;;;;;;7.28;2.08;;;;;;;;;;6151226;23;20065;-85
2022/09/13 16:02:53;;;;;;;4.13;1.67;;;;;;;;;;6151254;23;20013;-85
2022/09/13 16:05:19;;;;;;;4.60;1.60;;;;;;;;;;6149436;23;20032;-85
2022/09/13 16:07:45;;;;;;;1.65;1.20;;;;;;;;;;6149492;23;20025;-85
2022/09/13 16:10:13;;;;;;;4.25;1.73;;;;;;;;;;6150313;23;20124;-85
2022/09/13 16:12:40;;;;;;;5.10;1.48;;;;;;;;;;6150518;23;20100;-85
2022/09/13 16:15:06;;;;;;;2.83;1.20;;;;;;;;;;6151533;23;20044;-85
2022/09/13 16:17:32;;;;;;;3.17;1.45;;;;;;;;;;6151505;23;20014;-85
2022/09/13 16:19:58;;;;;;;4.07;1.38;;;;;;;;;;6149085;23;20026;-85
2022/09/13 16:22:24;;;;;;;2.42;1.15;;;;;;;;;;6149293;23;20322;-84
2022/09/13 16:24:50;;;;;;;3.83;1.40;;;;;;;;;;6150307;23;20022;-85
2022/09/13 16:27:17;;;;;;;3.55;1.40;;;;;;;;;;6151233;23;20105;-85
2022/09/13 16:29:43;;;;;;;3.60;1.77;;;;;;;;;;6151352;23;20459;-86
2022/09/13 16:32:10;;;;;;;3.75;1.50;;;;;;;;;;6151230;23;20018;-84
2022/09/13 16:34:36;;;;;;;3.65;1.23;;;;;;;;;;6148626;23;20021;-86
2022/09/13 16:37:02;;;;;;;3.53;1.40;;;;;;;;;;6118508;23;20403;-85
2022/09/13 16:39:28;;;;;;;9.02;1.52;;;;;;;;;;6150909;23;20340;-88
2022/09/13 16:41:54;;;;;;;4.55;1.80;;;;;;;;;;6150262;23;20014;-85
2022/09/13 16:44:20;;;;;;;4.93;1.70;;;;;;;;;;6149598;23;20056;-85
2022/09/13 16:46:46;;;;;;;6.78;1.90;;;;;;;;;;6150558;23;20027;-85
2022/09/13 16:49:12;;;;;;;3.05;1.40;;;;;;;;;;6148014;23;20088;-85
2022/09/13 16:51:38;;;;;;;5.63;1.70;;;;;;;;;;6151637;23;20021;-85
2022/09/13 16:54:05;;;;;;;5.90;1.60;;;;;;;;;;6148873;23;20028;-85
2022/09/13 16:56:31;;;;;;;6.75;1.55;;;;;;;;;;6149549;23;20325;-85
2022/09/13 16:58:57;;;;;;;4.57;1.73;;;;;;;;;;6150378;23;20084;-85
2022/09/13 17:01:24;;;;;;;8.02;1.85;;;;;;;;;;6149110;23;20029;-85
2022/09/13 17:03:50;;;;;;;7.07;1.65;;;;;;;;;;6148909;23;20092;-85
2022/09/13 17:06:17;;;;;;;3.20;1.48;;;;;;;;;;6149719;23;20021;-85
2022/09/13 17:08:48;;;;;;;3.53;1.20;;;;;;;;;;6150951;23;20100;-85
2022/09/13 17:11:15;;;;;;;7.00;1.48;;;;;;;;;;6150745;23;20017;-85
2022/09/13 17:13:41;;;;;;;5.22;1.52;;;;;;;;;;6151149;23;20021;-85
2022/09/13 17:16:18;;;;;;;3.92;1.58;;;;;;;;;;6148837;23;20021;-85
2022/09/13 17:18:44;;;;;;;3.70;1.33;;;;;;;;;;6149799;23;20049;-85
2022/09/13 17:21:10;;;;;;;3.85;1.63;;;;;;;;;;6150380;23;20227;-85
2022/09/13 17:23:36;;;;;;;5.05;1.70;;;;;;;;;;6151829;23;20021;-85
2022/09/13 17:26:02;;;;;;;5.88;1.45;;;;;;;;;;6148397;23;20033;-85
2022/09/13 17:28:28;;;;;;;3.33;1.35;;;;;;;;;;6148956;23;20412;-85
2022/09/13 17:30:54;;;;;;;5.28;1.83;;;;;;;;;;6147835;23;20025;-85
2022/09/13 17:33:20;;;;;;;3.33;1.58;;;;;;;;;;6150618;23;20061;-85
2022/09/13 17:35:46;;;;;;;3.85;1.70;;;;;;;;;;6150459;23;20017;-84
2022/09/13 17:38:13;;;;;;;3.90;1.40;;;;;;;;;;6123005;23;20041;-85
2022/09/13 17:40:41;;;;;;;6.50;1.38;;;;;;;;;;6150174;23;20624;-85
2022/09/13 17:43:07;;;;;;;2.88;1.27;;;;;;;;;;6149555;23;20063;-85
2022/09/13 17:45:33;;;;;;;4.65;1.48;;;;;;;;;;6148667;23;20057;-85
2022/09/13 17:47:59;;;;;;;5.97;1.77;;;;;;;;;;6148386;23;20225;-85
2022/09/13 17:50:25;;;;;;;4.90;1.50;;;;;;;;;;6149834;23;20081;-85
2022/09/13 17:52:51;;;;;;;5.50;1.42;;;;;;;;;;6151602;23;20064;-85
2022/09/13 17:55:18;;;;;;;4.95;1.50;;;;;;;;;;6152067;23;20021;-85
2022/09/13 17:57:47;;;;;;;5.00;1.58;;;;;;;;;;6151094;23;20026;-85